createdAt,value
2023-05-25T00:01:49.074Z,24.57
2023-05-25T00:04:19.501Z,23.70
2023-05-25T00:06:47.797Z,24.07
2023-05-25T00:09:16.346Z,25.53
2023-05-25T00:11:46.432Z,24.70
2023-05-25T00:14:14.726Z,23.60
2023-05-25T00:16:42.954Z,24.70
2023-05-25T00:19:11.445Z,26.23
2023-05-25T00:21:39.321Z,24.23
2023-05-25T00:24:08.458Z,24.67
2023-05-25T00:26:36.401Z,26.67
2023-05-25T00:29:07.043Z,25.70
2023-05-25T00:31:35.469Z,26.30
2023-05-25T00:34:03.532Z,25.47
2023-05-25T00:36:31.646Z,27.10
2023-05-25T00:38:59.536Z,26.67
2023-05-25T00:41:28.899Z,27.73
2023-05-25T00:43:57.659Z,27.90
2023-05-25T00:46:28.323Z,27.87
2023-05-25T00:48:56.711Z,30.00
2023-05-25T00:51:26.265Z,30.20
2023-05-25T00:53:54.415Z,29.63
2023-05-25T00:56:26.174Z,30.90
2023-05-25T00:58:56.899Z,30.43
2023-05-25T01:01:28.035Z,31.00
2023-05-25T01:03:58.530Z,33.17
2023-05-25T01:06:31.954Z,30.07
2023-05-25T01:09:04.680Z,32.20
2023-05-25T01:11:34.257Z,32.50
2023-05-25T01:14:03.351Z,34.33
2023-05-25T01:16:33.683Z,31.63
2023-05-25T01:19:02.804Z,33.70
2023-05-25T01:21:37.808Z,33.07
2023-05-25T01:24:13.767Z,33.10
2023-05-25T01:26:48.254Z,32.10
2023-05-25T01:29:18.890Z,33.50
2023-05-25T01:31:47.628Z,33.53
2023-05-25T01:34:17.419Z,33.53
2023-05-25T01:36:47.906Z,33.10
2023-05-25T01:39:16.877Z,33.80
2023-05-25T01:41:44.792Z,32.83
2023-05-25T01:44:12.920Z,34.17
2023-05-25T01:46:42.131Z,35.43
2023-05-25T01:49:27.705Z,32.80
2023-05-25T01:52:11.160Z,36.10
2023-05-25T01:54:41.806Z,34.50
2023-05-25T01:57:16.187Z,33.60
2023-05-25T01:59:47.787Z,32.63
2023-05-25T02:02:18.551Z,33.23
2023-05-25T02:04:47.905Z,32.17
2023-05-25T02:07:18.729Z,32.77
2023-05-25T02:09:46.678Z,33.70
2023-05-25T02:12:14.618Z,33.27
2023-05-25T02:14:42.586Z,35.40
2023-05-25T02:17:12.729Z,33.40
2023-05-25T02:19:40.735Z,33.60
2023-05-25T02:22:08.568Z,33.27
2023-05-25T02:24:38.118Z,33.97
2023-05-25T02:27:06.775Z,34.73
2023-05-25T02:29:36.222Z,34.10
2023-05-25T02:32:04.152Z,32.60
2023-05-25T02:34:32.117Z,34.13
2023-05-25T02:36:59.968Z,32.63
2023-05-25T02:39:28.439Z,33.87
2023-05-25T02:41:59.465Z,32.60
2023-05-25T02:44:28.194Z,33.57
2023-05-25T02:46:56.469Z,31.80
2023-05-25T02:49:24.953Z,31.97
2023-05-25T02:51:52.815Z,32.20
2023-05-25T02:54:20.869Z,32.27
2023-05-25T02:56:48.754Z,31.37
2023-05-25T02:59:20.600Z,30.27
2023-05-25T03:01:48.585Z,30.13
2023-05-25T03:04:17.971Z,30.93
2023-05-25T03:06:47.138Z,31.50
2023-05-25T03:09:19.233Z,30.87
2023-05-25T03:11:50.083Z,30.00
2023-05-25T03:14:22.144Z,28.53
2023-05-25T03:16:56.421Z,29.17
2023-05-25T03:19:25.772Z,28.97
2023-05-25T03:21:53.687Z,28.63
2023-05-25T03:24:21.789Z,30.00
2023-05-25T03:26:49.647Z,28.90
2023-05-25T03:29:18.833Z,30.23
2023-05-25T03:31:48.634Z,31.63
2023-05-25T03:34:17.621Z,31.43
2023-05-25T03:36:47.430Z,34.13
2023-05-25T03:39:18.120Z,32.93
2023-05-25T03:41:46.336Z,34.60
2023-05-25T03:44:15.028Z,33.27
2023-05-25T03:46:44.441Z,34.57
2023-05-25T03:49:15.708Z,34.90
2023-05-25T03:51:44.203Z,34.43
2023-05-25T03:54:13.688Z,35.07
2023-05-25T03:56:42.302Z,34.57
2023-05-25T03:59:10.365Z,35.90
2023-05-25T04:01:38.989Z,33.87
2023-05-25T04:04:07.300Z,34.57
2023-05-25T04:06:37.634Z,35.23
2023-05-25T04:09:08.727Z,35.33
2023-05-25T04:11:36.517Z,34.27
2023-05-25T04:14:05.384Z,35.93
2023-05-25T04:16:36.792Z,34.57
2023-05-25T04:19:05.397Z,35.87
2023-05-25T04:21:33.371Z,34.50
2023-05-25T04:24:02.676Z,35.33
2023-05-25T04:26:31.706Z,36.53
2023-05-25T04:29:02.289Z,36.07
2023-05-25T04:31:51.511Z,35.13
2023-05-25T04:34:38.177Z,34.30
2023-05-25T04:37:17.154Z,34.60
2023-05-25T04:39:47.749Z,34.13
2023-05-25T04:42:17.002Z,34.87
2023-05-25T04:44:45.263Z,34.73
2023-05-25T04:47:13.553Z,35.00
2023-05-25T04:49:41.684Z,34.37
2023-05-25T04:52:09.662Z,33.53
2023-05-25T04:54:38.843Z,32.93
2023-05-25T04:57:08.352Z,32.83
2023-05-25T04:59:37.190Z,33.17
2023-05-25T05:02:05.942Z,30.90
2023-05-25T05:04:33.887Z,29.90
2023-05-25T05:07:03.363Z,28.70
2023-05-25T05:09:32.020Z,28.87
2023-05-25T05:12:03.217Z,27.53
2023-05-25T05:14:37.359Z,26.27
2023-05-25T05:17:05.628Z,27.30
2023-05-25T05:19:34.016Z,26.03
2023-05-25T05:22:03.307Z,25.93
2023-05-25T05:24:31.566Z,27.67
2023-05-25T05:27:01.046Z,27.80
2023-05-25T05:29:39.835Z,28.17
2023-05-25T05:32:08.388Z,28.10
2023-05-25T05:34:37.427Z,27.67
2023-05-25T05:37:10.403Z,27.17
2023-05-25T05:39:38.507Z,26.20
2023-05-25T05:42:08.094Z,25.97
2023-05-25T05:44:36.128Z,26.03
2023-05-25T05:47:05.737Z,26.33
2023-05-25T05:49:34.370Z,24.73
2023-05-25T05:52:04.344Z,24.27
2023-05-25T05:54:32.863Z,23.73
2023-05-25T05:57:06.965Z,24.23
2023-05-25T05:59:35.617Z,22.63
2023-05-25T06:02:04.981Z,24.40
2023-05-25T06:04:33.366Z,21.13
2023-05-25T06:07:01.245Z,21.47
2023-05-25T06:09:29.216Z,22.90
2023-05-25T06:12:01.516Z,21.20
2023-05-25T06:14:30.153Z,21.10
2023-05-25T06:17:02.208Z,20.37
2023-05-25T06:19:31.651Z,21.60
2023-05-25T06:21:59.536Z,21.33
2023-05-25T06:24:27.389Z,21.70
2023-05-25T06:26:55.340Z,22.17
2023-05-25T06:29:23.189Z,20.27
2023-05-25T06:31:52.381Z,20.80
2023-05-25T06:34:20.735Z,21.60
2023-05-25T06:36:50.048Z,20.93
2023-05-25T06:39:19.062Z,20.33
2023-05-25T06:41:47.063Z,20.60
2023-05-25T06:44:26.575Z,19.60
2023-05-25T06:46:54.508Z,23.13
2023-05-25T06:49:22.610Z,20.47
2023-05-25T06:51:52.163Z,21.27
2023-05-25T06:54:20.583Z,21.97
2023-05-25T06:56:48.584Z,19.40
2023-05-25T06:59:16.470Z,20.67
2023-05-25T07:01:44.854Z,20.73
2023-05-25T07:04:12.710Z,22.10
2023-05-25T07:06:43.620Z,22.37
2023-05-25T07:09:13.534Z,22.80
2023-05-25T07:11:41.392Z,23.23
2023-05-25T07:14:09.248Z,22.30
2023-05-25T07:16:38.859Z,24.20
2023-05-25T07:19:06.763Z,23.23
2023-05-25T07:21:34.724Z,22.63
2023-05-25T07:24:02.754Z,22.27
2023-05-25T07:26:33.330Z,23.27
2023-05-25T07:29:01.790Z,23.37
2023-05-25T07:31:29.687Z,23.63
2023-05-25T07:33:57.625Z,23.60
2023-05-25T07:36:25.504Z,26.30
2023-05-25T07:38:53.644Z,23.73
2023-05-25T07:41:21.512Z,22.63
2023-05-25T07:43:52.226Z,23.13
2023-05-25T07:46:24.875Z,22.27
2023-05-25T07:48:54.424Z,22.87
2023-05-25T07:51:23.237Z,23.70
2023-05-25T07:53:52.281Z,22.93
2023-05-25T07:56:20.472Z,23.67
2023-05-25T07:58:51.000Z,26.47
2023-05-25T08:01:18.973Z,27.37
2023-05-25T08:03:49.826Z,28.03
2023-05-25T08:06:18.492Z,28.60
2023-05-25T08:08:46.840Z,29.07
2023-05-25T08:11:17.339Z,29.27
2023-05-25T08:13:45.646Z,29.60
2023-05-25T08:16:16.934Z,29.13
2023-05-25T08:18:47.145Z,28.63
2023-05-25T08:21:15.544Z,28.80
2023-05-25T08:23:43.962Z,27.37
2023-05-25T08:26:31.319Z,27.77
2023-05-25T08:29:00.797Z,26.53
2023-05-25T08:31:30.134Z,27.63
2023-05-25T08:33:59.713Z,25.40
2023-05-25T08:36:28.245Z,27.83
2023-05-25T08:38:56.200Z,25.13
2023-05-25T08:41:24.120Z,25.07
2023-05-25T08:43:52.199Z,25.87
2023-05-25T08:46:31.930Z,25.30
2023-05-25T08:49:05.477Z,26.13
2023-05-25T08:51:37.998Z,25.53
2023-05-25T08:54:09.953Z,25.53
2023-05-25T08:56:44.238Z,24.60
2023-05-25T08:59:19.087Z,25.13
2023-05-25T09:01:53.727Z,24.97
2023-05-25T09:04:23.302Z,25.33
2023-05-25T09:07:05.755Z,25.17
2023-05-25T09:09:38.665Z,24.83
2023-05-25T09:12:07.631Z,25.70
2023-05-25T09:14:37.529Z,23.63
2023-05-25T09:17:07.777Z,26.80
2023-05-25T09:19:37.456Z,26.43
2023-05-25T09:22:14.874Z,25.87
2023-05-25T09:24:44.550Z,25.77
2023-05-25T09:27:13.536Z,24.33
2023-05-25T09:29:42.159Z,26.03
2023-05-25T09:32:11.554Z,26.60
2023-05-25T09:34:39.737Z,24.27
2023-05-25T09:37:15.252Z,25.27
2023-05-25T09:39:43.739Z,25.07
2023-05-25T09:42:11.856Z,27.63
2023-05-25T09:44:40.382Z,28.20
2023-05-25T09:47:08.369Z,24.90
2023-05-25T09:49:38.465Z,26.00
2023-05-25T09:52:07.540Z,26.80
2023-05-25T09:54:37.454Z,28.27
2023-05-25T09:57:07.086Z,27.63
2023-05-25T09:59:35.015Z,26.13
2023-05-25T10:02:03.045Z,26.03
2023-05-25T10:04:31.060Z,27.77
2023-05-25T10:07:02.226Z,27.53
2023-05-25T10:09:31.176Z,27.63
2023-05-25T10:12:01.245Z,27.10
2023-05-25T10:14:31.164Z,26.93
2023-05-25T10:17:00.591Z,26.13
2023-05-25T10:19:34.074Z,27.87
2023-05-25T10:22:09.740Z,27.70
2023-05-25T10:24:44.764Z,26.77
2023-05-25T10:29:53.804Z,28.53
2023-05-25T10:32:21.976Z,29.20
2023-05-25T10:34:51.672Z,28.50
2023-05-25T10:37:21.693Z,28.10
2023-05-25T10:39:51.345Z,28.40
2023-05-25T10:42:19.889Z,27.87
2023-05-25T10:44:48.164Z,28.77
2023-05-25T10:47:17.123Z,27.10
2023-05-25T10:49:55.555Z,27.80
2023-05-25T10:52:28.590Z,28.73
2023-05-25T10:54:57.946Z,26.57
2023-05-25T10:57:26.662Z,28.03
2023-05-25T10:59:59.797Z,28.53
2023-05-25T11:02:29.548Z,27.40
2023-05-25T11:05:32.516Z,27.90
2023-05-25T11:08:02.916Z,26.67
2023-05-25T11:11:01.833Z,27.43
2023-05-25T11:13:40.664Z,25.67
2023-05-25T11:16:19.897Z,28.37
2023-05-25T11:18:52.487Z,28.80
2023-05-25T11:21:42.348Z,27.97
2023-05-25T11:24:16.250Z,28.27
2023-05-25T11:26:55.652Z,28.03
2023-05-25T11:29:25.374Z,30.33
2023-05-25T11:31:54.558Z,29.07
2023-05-25T11:34:24.279Z,29.73
2023-05-25T11:36:55.429Z,28.47
2023-05-25T11:39:24.850Z,29.23
2023-05-25T11:41:56.753Z,29.93
2023-05-25T11:44:29.580Z,29.07
2023-05-25T11:47:01.331Z,30.13
2023-05-25T11:49:29.571Z,31.00
2023-05-25T11:51:58.457Z,32.27
2023-05-25T11:54:29.020Z,29.30
2023-05-25T11:56:59.798Z,30.97
2023-05-25T11:59:30.508Z,29.93
2023-05-25T12:02:01.857Z,30.30
2023-05-25T12:04:31.037Z,30.70
2023-05-25T12:07:03.419Z,29.93
2023-05-25T12:09:32.991Z,31.30
2023-05-25T12:12:02.364Z,30.17
2023-05-25T12:14:31.004Z,30.60
2023-05-25T12:16:59.084Z,29.53
2023-05-25T12:19:27.092Z,29.73
2023-05-25T12:21:55.773Z,28.57
2023-05-25T12:24:25.096Z,29.97
2023-05-25T12:26:57.543Z,30.40
2023-05-25T12:29:26.773Z,30.67
2023-05-25T12:31:54.923Z,31.43
2023-05-25T12:34:27.915Z,30.73
2023-05-25T12:36:57.500Z,30.73
2023-05-25T12:39:39.051Z,31.30
2023-05-25T12:42:14.983Z,31.17
2023-05-25T12:44:43.877Z,30.83
2023-05-25T12:47:13.209Z,28.20
2023-05-25T12:49:42.302Z,29.60
2023-05-25T12:52:11.392Z,28.87
2023-05-25T12:54:43.673Z,29.57
2023-05-25T12:57:14.726Z,30.07
2023-05-25T12:59:44.217Z,30.73
2023-05-25T13:02:13.480Z,30.17
2023-05-25T13:04:42.439Z,30.63
2023-05-25T13:07:10.785Z,29.50
2023-05-25T13:09:38.770Z,30.90
2023-05-25T13:12:07.184Z,30.70
2023-05-25T13:14:36.430Z,29.77
2023-05-25T13:17:04.296Z,31.83
2023-05-25T13:19:32.203Z,29.40
2023-05-25T13:22:00.053Z,31.20
2023-05-25T13:24:27.999Z,26.80
2023-05-25T13:26:55.860Z,30.37
2023-05-25T13:29:25.535Z,30.70
2023-05-25T13:31:54.932Z,30.47
2023-05-25T13:34:23.339Z,31.63
2023-05-25T13:36:51.222Z,28.83
2023-05-25T13:39:19.846Z,30.80
2023-05-25T13:41:48.067Z,29.47
2023-05-25T13:44:17.629Z,29.07
2023-05-25T13:46:46.776Z,31.30
2023-05-25T13:49:19.332Z,30.03
2023-05-25T13:51:47.425Z,30.53
2023-05-25T13:54:15.362Z,31.53
2023-05-25T13:56:43.405Z,27.93
2023-05-25T13:59:11.400Z,31.40
2023-05-25T14:01:39.389Z,30.63
2023-05-25T14:04:07.586Z,30.50
2023-05-25T14:06:37.045Z,29.67
2023-05-25T14:09:05.047Z,30.70
2023-05-25T14:11:33.086Z,30.83
2023-05-25T14:14:00.972Z,29.03
2023-05-25T14:16:28.998Z,30.10
2023-05-25T14:18:57.515Z,28.13
2023-05-25T14:21:25.636Z,30.30
2023-05-25T14:23:54.908Z,29.97
2023-05-25T14:26:22.990Z,31.07
2023-05-25T14:28:51.287Z,28.07
2023-05-25T14:31:20.783Z,32.73
2023-05-25T14:33:48.811Z,29.77
2023-05-25T14:36:16.744Z,31.23
2023-05-25T14:38:44.639Z,29.67
2023-05-25T14:41:14.111Z,30.90
2023-05-25T14:43:42.404Z,32.07
2023-05-25T14:46:10.674Z,31.67
2023-05-25T14:48:38.594Z,31.50
2023-05-25T14:51:06.700Z,29.70
2023-05-25T14:53:34.796Z,29.40
2023-05-25T14:56:03.760Z,29.37
2023-05-25T14:58:34.138Z,29.07
2023-05-25T15:01:02.122Z,30.90
2023-05-25T15:03:30.325Z,28.00
2023-05-25T15:05:58.397Z,30.73
2023-05-25T15:08:26.263Z,29.83
2023-05-25T15:10:54.238Z,29.10
2023-05-25T15:13:22.650Z,30.80
2023-05-25T15:15:55.969Z,32.13
2023-05-25T15:18:24.068Z,32.15
2023-05-25T15:20:52.784Z,29.80
2023-05-25T15:23:21.088Z,27.87
2023-05-25T15:25:49.036Z,30.37
2023-05-25T15:28:16.967Z,30.57
2023-05-25T15:30:44.847Z,30.93
2023-05-25T15:33:15.631Z,29.80
2023-05-25T15:35:44.070Z,31.07
2023-05-25T15:38:12.158Z,28.83
2023-05-25T15:40:40.108Z,30.27
2023-05-25T15:43:08.073Z,30.10
2023-05-25T15:45:36.033Z,30.80
2023-05-25T15:48:04.134Z,31.23
2023-05-25T15:50:33.437Z,29.93
2023-05-25T15:53:01.282Z,29.57
2023-05-25T15:55:29.192Z,27.30
2023-05-25T15:57:57.095Z,30.63
2023-05-25T16:00:25.164Z,28.73
2023-05-25T16:02:53.164Z,30.20
2023-05-25T16:05:21.276Z,29.17
2023-05-25T16:07:50.440Z,28.63
2023-05-25T16:10:19.889Z,30.97
2023-05-25T16:12:47.805Z,31.45
2023-05-25T16:15:16.442Z,30.47
2023-05-25T16:17:44.284Z,28.97
2023-05-25T16:20:12.820Z,29.70
2023-05-25T16:22:40.703Z,37.05
2023-05-25T16:25:10.958Z,30.60
2023-05-25T16:27:38.871Z,30.10
2023-05-25T16:30:08.880Z,29.63
2023-05-25T16:32:39.838Z,29.20
2023-05-25T16:35:08.460Z,29.43
2023-05-25T16:37:36.448Z,27.80
2023-05-25T16:40:04.483Z,29.90
2023-05-25T16:42:33.775Z,28.73
2023-05-25T16:45:01.697Z,27.20
2023-05-25T16:47:30.039Z,29.27
2023-05-25T16:49:58.070Z,27.43
2023-05-25T16:52:26.142Z,28.37
2023-05-25T16:54:55.319Z,29.37
2023-05-25T16:57:23.184Z,28.33
2023-05-25T16:59:53.696Z,27.97
2023-05-25T17:02:22.033Z,26.90
2023-05-25T17:04:49.915Z,27.73
2023-05-25T17:07:18.329Z,26.47
2023-05-25T17:09:46.245Z,28.17
2023-05-25T17:12:14.180Z,26.90
2023-05-25T17:14:42.126Z,25.83
2023-05-25T17:17:11.380Z,27.83
2023-05-25T17:19:39.196Z,25.17
2023-05-25T17:22:07.235Z,24.93
2023-05-25T17:24:35.090Z,25.17
2023-05-25T17:27:02.993Z,27.47
2023-05-25T17:29:31.801Z,24.97
2023-05-25T17:31:59.748Z,26.07
2023-05-25T17:34:29.028Z,25.50
2023-05-25T17:36:56.931Z,26.57
2023-05-25T17:39:24.787Z,23.67
2023-05-25T17:41:53.823Z,24.33
2023-05-25T17:44:21.659Z,24.00
2023-05-25T17:46:49.904Z,24.90
2023-05-25T17:49:17.779Z,23.17
2023-05-25T17:51:47.023Z,24.40
2023-05-25T17:54:18.286Z,24.40
2023-05-25T17:56:46.336Z,23.07
2023-05-25T17:59:14.340Z,23.03
2023-05-25T18:01:42.626Z,24.73
2023-05-25T18:04:10.672Z,24.30
2023-05-25T18:06:38.791Z,25.53
2023-05-25T18:09:08.217Z,24.73
2023-05-25T18:11:36.661Z,25.10
2023-05-25T18:14:05.331Z,22.43
2023-05-25T18:16:33.486Z,23.60
2023-05-25T18:19:01.833Z,22.90
2023-05-25T18:21:29.740Z,22.67
2023-05-25T18:23:57.909Z,22.87
2023-05-25T18:26:27.640Z,25.17
2023-05-25T18:28:55.836Z,24.43
2023-05-25T18:31:24.978Z,22.67
2023-05-25T18:33:53.063Z,23.40
2023-05-25T18:36:21.151Z,23.27
2023-05-25T18:38:49.420Z,25.93
2023-05-25T18:41:19.181Z,23.33
2023-05-25T18:43:49.981Z,23.57
2023-05-25T18:46:18.125Z,25.60
2023-05-25T18:48:46.309Z,23.53
2023-05-25T18:51:15.519Z,25.13
2023-05-25T18:53:44.645Z,24.97
2023-05-25T18:56:12.745Z,23.97
2023-05-25T18:58:40.709Z,25.13
2023-05-25T19:01:09.941Z,23.77
2023-05-25T19:03:38.128Z,23.97
2023-05-25T19:06:06.722Z,26.20
2023-05-25T19:08:34.873Z,24.70
2023-05-25T19:11:02.952Z,25.30
2023-05-25T19:13:30.956Z,25.80
2023-05-25T19:15:58.997Z,26.40
2023-05-25T19:18:28.380Z,26.43
2023-05-25T19:20:58.224Z,27.70
2023-05-25T19:23:26.090Z,23.73
2023-05-25T19:25:54.246Z,25.97
2023-05-25T19:28:22.131Z,24.67
2023-05-25T19:30:50.044Z,24.50
2023-05-25T19:33:18.231Z,23.70
2023-05-25T19:35:47.562Z,22.63
2023-05-25T19:38:16.813Z,23.93
2023-05-25T19:40:44.925Z,23.63
2023-05-25T19:43:12.898Z,22.10
2023-05-25T19:45:40.970Z,21.53
2023-05-25T19:48:08.991Z,22.47
2023-05-25T19:50:38.565Z,22.63
2023-05-25T19:53:07.741Z,22.03
2023-05-25T19:55:36.738Z,20.00
2023-05-25T19:58:04.725Z,21.03
2023-05-25T20:00:32.894Z,21.03
2023-05-25T20:03:00.992Z,21.77
2023-05-25T20:05:31.298Z,20.20
2023-05-25T20:07:59.125Z,20.10
2023-05-25T20:10:28.551Z,21.10
2023-05-25T20:12:56.445Z,22.47
2023-05-25T20:15:24.449Z,21.73
2023-05-25T20:17:52.356Z,21.10
2023-05-25T20:20:20.586Z,22.90
2023-05-25T20:22:48.405Z,21.47
2023-05-25T20:25:16.390Z,22.77
2023-05-25T20:27:45.736Z,23.63
2023-05-25T20:30:15.596Z,23.07
2023-05-25T20:32:43.884Z,23.30
2023-05-25T20:35:11.789Z,22.83
2023-05-25T20:37:39.723Z,22.03
2023-05-25T20:40:08.554Z,22.80
2023-05-25T20:42:36.528Z,23.97
2023-05-25T20:45:07.017Z,23.10
2023-05-25T20:47:34.927Z,22.03
2023-05-25T20:50:02.806Z,22.10
2023-05-25T20:52:30.794Z,22.37
2023-05-25T20:54:58.670Z,22.53
2023-05-25T20:57:26.656Z,22.83
2023-05-25T20:59:57.115Z,24.20
2023-05-25T21:02:26.703Z,23.90
2023-05-25T21:04:54.688Z,23.10
2023-05-25T21:07:22.626Z,24.73
2023-05-25T21:09:51.079Z,23.23
2023-05-25T21:12:19.035Z,23.50
2023-05-25T21:14:46.919Z,25.43
2023-05-25T21:17:17.026Z,21.77
2023-05-25T21:19:46.724Z,21.57
2023-05-25T21:22:14.797Z,20.83
2023-05-25T21:24:42.786Z,19.83
2023-05-25T21:27:11.107Z,19.27
2023-05-25T21:29:38.998Z,20.70
2023-05-25T21:32:07.243Z,19.77
2023-05-25T21:34:35.062Z,20.10
2023-05-25T21:37:04.494Z,18.77
2023-05-25T21:39:32.314Z,19.43
2023-05-25T21:42:01.748Z,21.33
2023-05-25T21:44:29.630Z,20.00
2023-05-25T21:46:57.640Z,19.83
2023-05-25T21:49:25.624Z,19.10
2023-05-25T21:51:53.466Z,19.37
2023-05-25T21:54:23.935Z,20.50
2023-05-25T21:56:51.914Z,20.37
2023-05-25T21:59:19.787Z,19.27
2023-05-25T22:01:47.698Z,21.60
2023-05-25T22:04:15.966Z,17.60
2023-05-25T22:06:43.936Z,19.90
2023-05-25T22:09:11.828Z,19.23
2023-05-25T22:11:41.533Z,18.83
2023-05-25T22:14:09.511Z,18.63
2023-05-25T22:16:37.369Z,19.43
2023-05-25T22:19:05.291Z,19.53
2023-05-25T22:21:33.189Z,19.27
2023-05-25T22:24:01.166Z,20.10
2023-05-25T22:26:29.210Z,19.57
2023-05-25T22:28:58.468Z,20.73
2023-05-25T22:31:26.746Z,20.07
2023-05-25T22:33:54.753Z,21.07
2023-05-25T22:36:22.612Z,20.60
2023-05-25T22:38:50.542Z,21.50
2023-05-25T22:41:18.407Z,23.03
2023-05-25T22:43:46.318Z,21.53
2023-05-25T22:46:15.739Z,21.47
2023-05-25T22:48:43.980Z,23.00
2023-05-25T22:51:11.806Z,24.60
2023-05-25T22:53:39.745Z,24.83
2023-05-25T22:56:07.954Z,23.53
2023-05-25T22:58:35.854Z,24.47
2023-05-25T23:01:03.740Z,27.73
2023-05-25T23:03:33.083Z,24.60
2023-05-25T23:06:01.072Z,25.63
2023-05-25T23:08:28.969Z,27.27
2023-05-25T23:10:56.853Z,26.40
2023-05-25T23:13:24.851Z,26.93
2023-05-25T23:15:55.082Z,26.47
2023-05-25T23:18:22.960Z,26.50
2023-05-25T23:20:52.105Z,27.20
2023-05-25T23:23:19.963Z,27.83
2023-05-25T23:25:47.972Z,25.90
2023-05-25T23:28:15.985Z,26.90
2023-05-25T23:30:43.853Z,25.03
2023-05-25T23:33:11.777Z,24.63
2023-05-25T23:35:39.713Z,23.13
2023-05-25T23:38:08.940Z,22.63
2023-05-25T23:40:36.834Z,21.97
2023-05-25T23:43:05.177Z,20.43
2023-05-25T23:45:33.153Z,20.23
2023-05-25T23:48:01.081Z,19.70
2023-05-25T23:50:29.026Z,19.90
2023-05-25T23:52:56.945Z,19.97
2023-05-25T23:55:26.288Z,20.83
2023-05-25T23:57:54.148Z,21.43
